createdAt,value
2023-03-06T00:02:09.518Z,99547.40
2023-03-06T00:07:11.049Z,99542.52
2023-03-06T00:12:12.544Z,99541.90
2023-03-06T00:17:14.047Z,99537.43
2023-03-06T00:22:16.561Z,99535.83
2023-03-06T00:27:18.455Z,99538.12
2023-03-06T00:32:19.979Z,99537.78
2023-03-06T00:37:23.434Z,99534.76
2023-03-06T00:42:25.326Z,99535.97
2023-03-06T00:47:27.267Z,99534.66
2023-03-06T00:52:29.224Z,99530.14
2023-03-06T00:57:30.769Z,99521.23
2023-03-06T01:02:32.640Z,99526.16
2023-03-06T01:07:37.018Z,99529.72
2023-03-06T01:12:38.947Z,99529.37
2023-03-06T01:17:40.473Z,99530.52
2023-03-06T01:22:42.927Z,99521.38
2023-03-06T01:27:44.458Z,99520.86
2023-03-06T01:32:46.456Z,99520.84
2023-03-06T01:37:47.946Z,99524.17
2023-03-06T01:42:50.537Z,99527.16
2023-03-06T01:47:51.998Z,99523.77
2023-03-06T01:52:58.062Z,99520.55
2023-03-06T01:58:03.849Z,99514.77
2023-03-06T02:03:10.405Z,99514.53
2023-03-06T02:08:15.004Z,99514.61
2023-03-06T02:13:16.649Z,99514.18
2023-03-06T02:18:18.421Z,99508.86
2023-03-06T02:23:32.263Z,99506.02
2023-03-06T02:28:34.670Z,99506.89
2023-03-06T02:33:36.184Z,99507.08
2023-03-06T02:38:44.590Z,99509.27
2023-03-06T02:43:48.802Z,99505.74
2023-03-06T02:48:50.349Z,99507.49
2023-03-06T02:53:51.868Z,99506.52
2023-03-06T02:58:53.339Z,99510.95
2023-03-06T03:03:54.845Z,99508.86
2023-03-06T03:08:56.322Z,99509.12
2023-03-06T03:13:57.807Z,99508.55
2023-03-06T03:18:59.315Z,99508.13
2023-03-06T03:24:00.807Z,99506.39
2023-03-06T03:29:04.197Z,99506.85
2023-03-06T03:34:06.163Z,99508.14
2023-03-06T03:39:07.686Z,99509.56
2023-03-06T03:44:09.711Z,99507.41
2023-03-06T03:49:11.312Z,99505.84
2023-03-06T03:54:12.911Z,99505.26
2023-03-06T03:59:14.963Z,99501.31
2023-03-06T04:04:16.553Z,99501.37
2023-03-06T04:09:18.049Z,99498.55
2023-03-06T04:14:19.501Z,99500.52
2023-03-06T04:19:20.979Z,99496.52
2023-03-06T04:24:22.436Z,99498.08
2023-03-06T04:29:23.888Z,99496.46
2023-03-06T04:34:25.547Z,99492.37
2023-03-06T04:39:27.135Z,99491.36
2023-03-06T04:44:28.643Z,99490.21
2023-03-06T04:49:30.143Z,99490.67
2023-03-06T04:54:32.127Z,99488.15
2023-03-06T04:59:33.670Z,99489.64
2023-03-06T05:04:35.196Z,99486.44
2023-03-06T05:09:39.127Z,99482.01
2023-03-06T05:14:40.789Z,99482.61
2023-03-06T05:19:42.243Z,99486.29
2023-03-06T05:24:43.705Z,99478.58
2023-03-06T05:29:45.379Z,99483.02
2023-03-06T05:34:47.559Z,99475.83
2023-03-06T05:39:50.066Z,99476.55
2023-03-06T05:44:51.610Z,99482.87
2023-03-06T05:49:53.105Z,99482.27
2023-03-06T05:54:55.442Z,99489.13
2023-03-06T05:59:56.961Z,99489.28
2023-03-06T06:04:58.517Z,99486.65
2023-03-06T06:10:03.137Z,99488.27
2023-03-06T06:15:06.643Z,99493.05
2023-03-06T06:20:09.477Z,99498.17
2023-03-06T06:25:10.956Z,99501.13
2023-03-06T06:30:13.443Z,99502.20
2023-03-06T06:35:15.117Z,99503.15
2023-03-06T06:40:17.107Z,99502.27
2023-03-06T06:45:19.016Z,99499.71
2023-03-06T06:50:20.603Z,99499.52
2023-03-06T06:55:22.110Z,99492.77
2023-03-06T07:00:24.439Z,99483.35
2023-03-06T07:05:25.961Z,99485.58
2023-03-06T07:10:27.645Z,99482.20
2023-03-06T07:15:30.884Z,99483.98
2023-03-06T07:20:32.650Z,99480.04
2023-03-06T07:25:34.323Z,99475.66
2023-03-06T07:30:35.893Z,99469.39
2023-03-06T07:35:37.435Z,99461.00
2023-03-06T07:40:39.064Z,99458.17
2023-03-06T07:45:40.531Z,99461.80
2023-03-06T07:50:42.170Z,99461.81
2023-03-06T07:55:43.695Z,99465.23
2023-03-06T08:00:45.709Z,99465.64
2023-03-06T08:05:47.203Z,99469.52
2023-03-06T08:10:49.213Z,99468.55
2023-03-06T08:15:50.785Z,99471.14
2023-03-06T08:21:05.936Z,99470.07
2023-03-06T08:26:16.387Z,99468.20
2023-03-06T08:31:27.217Z,99458.59
2023-03-06T08:36:29.436Z,99460.05
2023-03-06T08:41:31.781Z,99450.94
2023-03-06T08:46:34.999Z,99448.44
2023-03-06T08:51:36.533Z,99444.23
2023-03-06T08:56:38.497Z,99445.18
2023-03-06T09:01:40.874Z,99443.67
2023-03-06T09:06:45.303Z,99445.02
2023-03-06T09:11:46.824Z,99439.98
2023-03-06T09:16:48.571Z,99435.87
2023-03-06T09:21:50.266Z,99433.62
2023-03-06T09:26:51.886Z,99429.36
2023-03-06T09:31:53.639Z,99428.29
2023-03-06T09:36:57.264Z,99427.76
2023-03-06T09:41:59.326Z,99422.80
2023-03-06T09:47:18.967Z,99426.16
2023-03-06T09:52:30.275Z,99417.52
2023-03-06T09:57:36.210Z,99414.34
2023-03-06T10:02:44.524Z,99410.30
2023-03-06T10:07:53.022Z,99404.41
2023-03-06T10:13:10.020Z,99404.07
2023-03-06T10:18:13.349Z,99409.39
2023-03-06T10:23:56.474Z,99404.58
2023-03-06T10:29:28.773Z,99403.80
2023-03-06T10:34:35.677Z,99401.66
2023-03-06T10:39:37.459Z,99395.34
2023-03-06T10:44:38.962Z,99399.09
2023-03-06T10:49:41.213Z,99395.06
2023-03-06T10:54:44.417Z,99389.52
2023-03-06T10:59:56.532Z,99389.21
2023-03-06T11:05:00.945Z,99390.77
2023-03-06T11:10:19.412Z,99382.30
2023-03-06T11:15:23.759Z,99364.45
2023-03-06T11:20:48.544Z,99357.14
2023-03-06T11:26:11.091Z,99348.98
2023-03-06T11:31:20.960Z,99336.93
2023-03-06T11:36:33.845Z,99326.93
2023-03-06T11:41:57.732Z,99322.54
2023-03-06T11:47:31.459Z,99314.62
2023-03-06T11:52:53.224Z,99302.92
2023-03-06T11:58:16.510Z,99295.58
2023-03-06T12:03:36.280Z,99290.35
2023-03-06T12:09:04.934Z,99287.34
2023-03-06T12:14:13.009Z,99279.85
2023-03-06T12:19:33.245Z,99274.34
2023-03-06T12:25:03.176Z,99275.13
2023-03-06T12:30:26.364Z,99279.21
2023-03-06T12:36:00.345Z,99276.98
2023-03-06T12:41:16.913Z,99270.94
2023-03-06T12:46:24.941Z,99262.73
2023-03-06T12:51:27.314Z,99265.86
2023-03-06T12:56:31.739Z,99261.69
2023-03-06T13:01:55.654Z,99256.54
2023-03-06T13:07:28.977Z,99252.96
2023-03-06T13:13:25.092Z,99248.55
2023-03-06T13:18:26.575Z,99246.46
2023-03-06T13:23:37.390Z,99239.77
2023-03-06T13:28:46.964Z,99231.29
2023-03-06T13:33:55.356Z,99229.08
2023-03-06T13:39:02.566Z,99221.70
2023-03-06T13:44:26.113Z,99214.16
2023-03-06T13:49:29.473Z,99212.18
2023-03-06T13:54:33.870Z,99205.94
2023-03-06T14:00:08.744Z,99205.39
2023-03-06T14:05:14.548Z,99204.80
2023-03-06T14:10:24.919Z,99196.34
2023-03-06T14:15:36.185Z,99194.13
2023-03-06T14:20:49.369Z,99193.07
2023-03-06T14:25:59.002Z,99195.05
2023-03-06T14:31:03.461Z,99189.38
2023-03-06T14:36:09.978Z,99181.34
2023-03-06T14:41:14.061Z,99179.56
2023-03-06T14:46:21.470Z,99179.27
2023-03-06T14:51:25.536Z,99176.84
2023-03-06T14:56:28.287Z,99178.80
2023-03-06T15:01:36.392Z,99172.11
2023-03-06T15:06:45.285Z,99177.16
2023-03-06T15:12:08.043Z,99174.77
2023-03-06T15:17:18.342Z,99178.91
2023-03-06T15:22:33.571Z,99177.85
2023-03-06T15:27:35.479Z,99179.78
2023-03-06T15:32:42.524Z,99180.37
2023-03-06T15:37:44.841Z,99178.55
2023-03-06T15:42:46.854Z,99176.84
2023-03-06T15:47:49.863Z,99176.86
2023-03-06T15:52:53.065Z,99176.79
2023-03-06T15:57:59.686Z,99185.91
2023-03-06T16:03:02.028Z,99192.46
2023-03-06T16:08:04.682Z,99190.40
2023-03-06T16:13:11.140Z,99196.60
2023-03-06T16:18:13.520Z,99194.23
2023-03-06T16:23:16.374Z,99193.50
2023-03-06T16:28:17.908Z,99195.58
2023-03-06T16:33:20.745Z,99191.16
2023-03-06T16:38:22.273Z,99190.15
2023-03-06T16:43:23.839Z,99190.95
2023-03-06T16:48:25.317Z,99191.29
2023-03-06T16:53:26.913Z,99199.02
2023-03-06T16:58:28.481Z,99199.63
2023-03-06T17:03:30.022Z,99196.77
2023-03-06T17:08:31.610Z,99198.30
2023-03-06T17:13:33.094Z,99200.65
2023-03-06T17:18:35.236Z,99201.64
2023-03-06T17:23:37.915Z,99200.39
2023-03-06T17:28:39.975Z,99198.69
2023-03-06T17:33:42.418Z,99198.52
2023-03-06T17:38:44.303Z,99197.64
2023-03-06T17:43:46.188Z,99195.91
2023-03-06T17:48:47.865Z,99196.30
2023-03-06T17:53:49.748Z,99195.61
2023-03-06T17:58:51.408Z,99192.39
2023-03-06T18:03:53.623Z,99196.60
2023-03-06T18:08:55.094Z,99197.70
2023-03-06T18:13:56.837Z,99200.30
2023-03-06T18:18:58.595Z,99200.24
2023-03-06T18:24:00.126Z,99194.90
2023-03-06T18:29:04.512Z,99196.53
2023-03-06T18:34:12.670Z,99200.52
2023-03-06T18:39:15.799Z,99203.83
2023-03-06T18:44:17.657Z,99205.82
2023-03-06T18:49:19.226Z,99210.36
2023-03-06T18:54:20.994Z,99208.36
2023-03-06T18:59:22.845Z,99203.15
2023-03-06T19:04:26.130Z,99206.02
2023-03-06T19:09:27.630Z,99195.48
2023-03-06T19:14:29.637Z,99190.15
2023-03-06T19:19:31.151Z,99192.92
2023-03-06T19:24:32.692Z,99189.05
2023-03-06T19:29:34.246Z,99181.23
2023-03-06T19:34:35.766Z,99183.05
2023-03-06T19:39:37.323Z,99181.48
2023-03-06T19:44:38.788Z,99180.35
2023-03-06T19:49:40.433Z,99180.48
2023-03-06T19:54:41.923Z,99174.02
2023-03-06T19:59:43.829Z,99167.52
2023-03-06T20:04:47.229Z,99163.27
2023-03-06T20:09:48.913Z,99157.48
2023-03-06T20:14:53.244Z,99161.35
2023-03-06T20:19:58.180Z,99165.52
2023-03-06T20:24:59.662Z,99162.98
2023-03-06T20:30:01.507Z,99162.98
2023-03-06T20:35:03.590Z,99152.63
2023-03-06T20:40:06.082Z,99148.40
2023-03-06T20:45:08.166Z,99151.45
2023-03-06T20:50:10.224Z,99149.27
2023-03-06T20:55:12.100Z,99147.58
2023-03-06T21:00:14.018Z,99146.31
2023-03-06T21:05:15.874Z,99147.74
2023-03-06T21:10:17.552Z,99145.05
2023-03-06T21:15:19.635Z,99147.26
2023-03-06T21:20:21.298Z,99148.30
2023-03-06T21:25:23.391Z,99149.56
2023-03-06T21:30:24.865Z,99150.42
2023-03-06T21:35:26.828Z,99150.20
2023-03-06T21:40:28.415Z,99151.25
2023-03-06T21:45:31.818Z,99145.80
2023-03-06T21:50:33.402Z,99145.71
2023-03-06T21:55:39.895Z,99149.94
2023-03-06T22:00:41.436Z,99153.63
2023-03-06T22:05:43.347Z,99153.63
2023-03-06T22:10:47.524Z,99155.66
2023-03-06T22:15:51.737Z,99148.59
2023-03-06T22:20:53.299Z,99153.03
2023-03-06T22:25:54.808Z,99151.52
2023-03-06T22:31:02.135Z,99159.50
2023-03-06T22:36:07.654Z,99162.77
2023-03-06T22:41:10.712Z,99170.94
2023-03-06T22:46:14.965Z,99177.70
2023-03-06T22:51:19.424Z,99182.27
2023-03-06T22:56:22.219Z,99183.79
2023-03-06T23:01:26.769Z,99182.45
2023-03-06T23:06:34.043Z,99185.67
2023-03-06T23:11:35.578Z,99189.58
2023-03-06T23:16:38.907Z,99194.15
2023-03-06T23:21:40.987Z,99187.52
2023-03-06T23:26:42.589Z,99187.87
2023-03-06T23:31:44.053Z,99192.27
2023-03-06T23:36:45.569Z,99196.54
2023-03-06T23:41:47.581Z,99202.66
2023-03-06T23:46:49.075Z,99205.36
2023-03-06T23:51:50.690Z,99207.61
2023-03-06T23:56:52.182Z,99207.63
